createdAt,value
2022-12-16T00:00:03.722Z,31.55
2022-12-16T00:02:30.537Z,33.55
2022-12-16T00:04:57.600Z,35.85
2022-12-16T00:07:24.653Z,35.65
2022-12-16T00:09:51.316Z,33.78
2022-12-16T00:12:18.359Z,34.22
2022-12-16T00:14:44.975Z,33.65
2022-12-16T00:17:11.673Z,32.08
2022-12-16T00:19:38.414Z,30.80
2022-12-16T00:22:05.070Z,36.25
2022-12-16T00:24:31.754Z,33.95
2022-12-16T00:26:58.393Z,29.90
2022-12-16T00:29:25.043Z,34.85
2022-12-16T00:31:52.242Z,30.15
2022-12-16T00:34:19.388Z,32.00
2022-12-16T00:36:46.068Z,31.02
2022-12-16T00:39:12.754Z,31.13
2022-12-16T00:41:39.424Z,33.22
2022-12-16T00:44:06.075Z,26.88
2022-12-16T00:46:32.810Z,33.53
2022-12-16T00:48:59.765Z,32.92
2022-12-16T00:51:26.401Z,32.10
2022-12-16T00:53:53.013Z,31.15
2022-12-16T00:56:20.865Z,32.55
2022-12-16T00:58:47.665Z,32.88
2022-12-16T01:01:14.424Z,26.95
2022-12-16T01:03:41.715Z,27.77
2022-12-16T01:06:14.355Z,32.42
2022-12-16T01:08:48.112Z,31.80
2022-12-16T01:11:19.739Z,32.00
2022-12-16T01:13:50.246Z,33.50
2022-12-16T01:16:18.997Z,33.38
2022-12-16T01:18:45.700Z,30.67
2022-12-16T01:21:14.881Z,31.98
2022-12-16T01:23:41.590Z,32.10
2022-12-16T01:26:09.799Z,35.38
2022-12-16T01:28:36.471Z,33.55
2022-12-16T01:31:03.160Z,31.88
2022-12-16T01:33:34.026Z,34.15
2022-12-16T01:36:06.457Z,32.78
2022-12-16T01:38:34.077Z,26.17
2022-12-16T01:41:01.059Z,30.85
2022-12-16T01:43:36.948Z,29.75
2022-12-16T01:46:14.221Z,29.17
2022-12-16T01:49:03.871Z,32.38
2022-12-16T01:51:46.174Z,32.40
2022-12-16T01:54:25.717Z,32.55
2022-12-16T01:56:56.731Z,33.45
2022-12-16T01:59:28.172Z,33.30
2022-12-16T02:01:55.108Z,34.33
2022-12-16T02:04:22.020Z,34.08
2022-12-16T02:06:48.886Z,32.00
2022-12-16T02:09:17.754Z,32.75
2022-12-16T02:12:17.668Z,32.13
2022-12-16T02:15:10.970Z,32.85
2022-12-16T02:17:45.632Z,33.88
2022-12-16T02:20:37.310Z,34.17
2022-12-16T02:23:36.713Z,34.20
2022-12-16T02:26:40.796Z,33.42
2022-12-16T02:29:48.428Z,33.40
2022-12-16T02:32:20.593Z,33.40
2022-12-16T02:35:09.115Z,32.97
2022-12-16T02:37:38.753Z,33.63
2022-12-16T02:40:27.578Z,30.63
2022-12-16T02:43:19.710Z,32.83
2022-12-16T02:45:47.102Z,30.75
2022-12-16T02:48:13.750Z,32.83
2022-12-16T02:50:45.600Z,32.70
2022-12-16T02:53:12.817Z,31.45
2022-12-16T02:56:02.063Z,32.25
2022-12-16T02:58:52.006Z,30.92
2022-12-16T03:01:24.726Z,31.60
2022-12-16T03:04:03.169Z,32.25
2022-12-16T03:06:33.787Z,30.08
2022-12-16T03:09:05.194Z,30.90
2022-12-16T03:11:33.205Z,32.28
2022-12-16T03:14:01.315Z,31.33
2022-12-16T03:16:32.647Z,30.08
2022-12-16T03:19:03.482Z,31.33
2022-12-16T03:21:37.315Z,29.33
2022-12-16T03:24:07.576Z,28.05
2022-12-16T03:26:35.999Z,30.58
2022-12-16T03:29:27.938Z,28.55
2022-12-16T03:32:02.879Z,31.75
2022-12-16T03:34:42.467Z,29.92
2022-12-16T03:37:11.406Z,32.67
2022-12-16T03:39:46.097Z,26.58
2022-12-16T03:42:15.485Z,33.08
2022-12-16T03:44:44.252Z,30.67
2022-12-16T03:47:11.162Z,31.20
2022-12-16T03:49:38.163Z,30.95
2022-12-16T03:52:05.372Z,28.08
2022-12-16T03:54:32.068Z,31.75
2022-12-16T03:56:58.871Z,31.55
2022-12-16T03:59:25.930Z,29.33
2022-12-16T04:01:53.155Z,31.15
2022-12-16T04:04:19.846Z,32.03
2022-12-16T04:07:06.479Z,31.63
2022-12-16T04:09:33.214Z,28.77
2022-12-16T04:12:18.510Z,33.25
2022-12-16T04:15:04.079Z,32.72
2022-12-16T04:17:49.463Z,32.05
2022-12-16T04:20:36.083Z,32.17
2022-12-16T04:23:23.183Z,32.42
2022-12-16T04:25:50.273Z,30.35
2022-12-16T04:28:16.950Z,32.55
2022-12-16T04:30:43.666Z,30.73
2022-12-16T04:33:33.249Z,29.45
2022-12-16T04:36:19.067Z,28.98
2022-12-16T04:39:04.597Z,31.75
2022-12-16T04:41:50.090Z,30.27
2022-12-16T04:44:35.559Z,29.23
2022-12-16T04:47:21.208Z,30.27
2022-12-16T04:50:06.526Z,27.75
2022-12-16T04:52:51.937Z,29.83
2022-12-16T04:55:37.454Z,29.95
2022-12-16T04:58:22.892Z,29.10
2022-12-16T05:01:09.019Z,31.38
2022-12-16T05:03:54.847Z,28.58
2022-12-16T05:06:40.722Z,30.42
2022-12-16T05:09:26.507Z,31.98
2022-12-16T05:12:12.152Z,31.02
2022-12-16T05:14:57.497Z,28.50
2022-12-16T05:17:42.936Z,30.30
2022-12-16T05:20:28.941Z,31.88
2022-12-16T05:23:15.212Z,29.17
2022-12-16T05:26:00.855Z,26.98
2022-12-16T05:28:46.446Z,29.10
2022-12-16T05:31:31.887Z,31.98
2022-12-16T05:34:17.207Z,27.48
2022-12-16T05:37:02.604Z,31.45
2022-12-16T05:39:47.989Z,30.40
2022-12-16T05:42:33.435Z,29.55
2022-12-16T05:45:18.772Z,31.33
2022-12-16T05:48:07.121Z,28.77
2022-12-16T05:50:52.597Z,28.70
2022-12-16T05:53:37.948Z,30.30
2022-12-16T05:56:24.149Z,37.35
2022-12-16T05:59:09.775Z,31.77
2022-12-16T06:01:55.320Z,28.92
2022-12-16T06:04:40.547Z,25.88
2022-12-16T06:07:25.890Z,25.42
2022-12-16T06:10:11.285Z,26.08
2022-12-16T06:12:56.623Z,26.42
2022-12-16T06:15:42.073Z,25.20
2022-12-16T06:18:27.576Z,26.75
2022-12-16T06:21:12.831Z,24.27
2022-12-16T06:24:08.852Z,26.70
2022-12-16T06:26:54.190Z,23.73
2022-12-16T06:29:41.121Z,25.73
2022-12-16T06:32:26.563Z,25.38
2022-12-16T06:35:12.013Z,25.63
2022-12-16T06:37:57.494Z,23.45
2022-12-16T06:40:42.939Z,24.83
2022-12-16T06:43:28.341Z,26.10
2022-12-16T06:46:13.949Z,26.90
2022-12-16T06:48:59.112Z,27.23
2022-12-16T06:51:44.410Z,28.73
2022-12-16T06:54:29.786Z,25.70
2022-12-16T06:57:15.283Z,25.05
2022-12-16T07:00:01.467Z,25.88
2022-12-16T07:02:47.322Z,24.98
2022-12-16T07:05:32.711Z,23.85
2022-12-16T07:08:18.146Z,21.73
2022-12-16T07:11:15.564Z,23.95
2022-12-16T07:14:00.980Z,23.88
2022-12-16T07:16:46.665Z,24.02
2022-12-16T07:19:31.744Z,23.30
2022-12-16T07:22:17.132Z,25.15
2022-12-16T07:25:02.460Z,24.05
2022-12-16T07:28:04.604Z,26.15
2022-12-16T07:30:49.850Z,25.15
2022-12-16T07:33:35.755Z,25.33
2022-12-16T07:36:21.230Z,24.10
2022-12-16T07:39:06.637Z,25.00
2022-12-16T07:41:52.119Z,22.70
2022-12-16T07:44:37.486Z,21.80
2022-12-16T07:47:22.870Z,25.23
2022-12-16T07:50:08.291Z,21.17
2022-12-16T07:52:53.743Z,22.30
2022-12-16T07:55:40.794Z,23.30
2022-12-16T07:58:26.320Z,22.83
2022-12-16T08:01:11.773Z,22.20
2022-12-16T08:03:57.377Z,17.95
2022-12-16T08:06:42.515Z,20.38
2022-12-16T08:09:27.946Z,21.40
2022-12-16T08:12:13.493Z,19.88
2022-12-16T08:14:58.923Z,21.73
2022-12-16T08:17:44.422Z,21.20
2022-12-16T08:20:29.948Z,19.30
2022-12-16T08:23:15.410Z,22.73
2022-12-16T08:26:00.938Z,19.35
2022-12-16T08:28:46.460Z,22.02
2022-12-16T08:31:31.916Z,21.95
2022-12-16T08:34:17.044Z,21.23
2022-12-16T08:37:02.550Z,17.27
2022-12-16T08:39:54.855Z,17.45
2022-12-16T08:42:53.057Z,18.73
2022-12-16T08:45:38.565Z,18.33
2022-12-16T08:48:24.077Z,19.48
2022-12-16T08:51:09.265Z,17.25
2022-12-16T08:53:54.645Z,15.48
2022-12-16T08:56:40.000Z,16.70
2022-12-16T08:59:25.399Z,17.75
2022-12-16T09:02:10.963Z,19.50
2022-12-16T09:04:56.293Z,20.45
2022-12-16T09:07:41.644Z,19.60
2022-12-16T09:10:27.107Z,15.95
2022-12-16T09:13:12.587Z,18.35
2022-12-16T09:15:58.088Z,16.75
2022-12-16T09:18:43.588Z,18.90
2022-12-16T09:21:33.235Z,17.88
2022-12-16T09:24:18.804Z,17.13
2022-12-16T09:27:04.161Z,18.95
2022-12-16T09:29:49.554Z,17.67
2022-12-16T09:32:34.956Z,19.23
2022-12-16T09:35:20.344Z,20.27
2022-12-16T09:38:06.248Z,18.52
2022-12-16T09:40:51.585Z,19.33
2022-12-16T09:44:02.500Z,19.85
2022-12-16T09:47:11.155Z,18.40
2022-12-16T09:50:05.273Z,18.67
2022-12-16T09:53:06.869Z,20.45
2022-12-16T09:55:59.671Z,19.08
2022-12-16T09:58:49.928Z,18.77
2022-12-16T10:01:35.664Z,18.17
2022-12-16T10:04:21.550Z,19.30
2022-12-16T10:07:10.359Z,19.48
2022-12-16T10:10:10.832Z,20.15
2022-12-16T10:13:13.838Z,18.15
2022-12-16T10:16:35.777Z,18.30
2022-12-16T10:19:30.719Z,17.35
2022-12-16T10:22:18.665Z,19.73
2022-12-16T10:25:12.763Z,19.35
2022-12-16T10:28:06.492Z,19.25
2022-12-16T10:30:54.687Z,18.05
2022-12-16T10:33:44.087Z,19.15
2022-12-16T10:36:37.304Z,17.45
2022-12-16T10:39:35.067Z,17.73
2022-12-16T10:42:21.418Z,16.95
2022-12-16T10:45:08.880Z,18.33
2022-12-16T10:47:54.415Z,18.88
2022-12-16T10:50:40.519Z,17.02
2022-12-16T10:53:40.423Z,17.70
2022-12-16T10:57:08.256Z,19.98
2022-12-16T10:59:57.101Z,18.17
2022-12-16T11:02:45.175Z,17.48
2022-12-16T11:05:51.915Z,17.30
2022-12-16T11:08:44.781Z,15.82
2022-12-16T11:11:45.931Z,18.33
2022-12-16T11:15:12.429Z,18.55
2022-12-16T11:17:56.439Z,16.42
2022-12-16T11:20:44.004Z,17.70
2022-12-16T11:23:40.899Z,16.98
2022-12-16T11:26:37.011Z,19.30
2022-12-16T11:29:37.044Z,18.45
2022-12-16T11:32:32.102Z,22.70
2022-12-16T11:35:20.454Z,17.75
2022-12-16T11:38:27.388Z,18.38
2022-12-16T11:41:14.428Z,17.27
2022-12-16T11:44:04.826Z,16.85
2022-12-16T11:46:50.366Z,17.25
2022-12-16T11:50:02.646Z,19.63
2022-12-16T11:52:48.522Z,16.02
2022-12-16T11:59:07.303Z,16.20
2022-12-16T12:02:06.384Z,16.70
2022-12-16T12:07:57.198Z,17.65
2022-12-16T12:10:54.469Z,18.58
2022-12-16T12:13:56.474Z,17.30
2022-12-16T12:16:50.782Z,19.00
2022-12-16T12:19:54.113Z,19.40
2022-12-16T12:22:53.018Z,17.60
2022-12-16T12:26:06.363Z,19.15
2022-12-16T12:28:58.861Z,19.73
2022-12-16T12:31:46.756Z,20.83
2022-12-16T12:35:02.881Z,21.35
2022-12-16T12:37:52.592Z,20.80
2022-12-16T12:43:47.006Z,19.98
2022-12-16T12:46:56.699Z,19.77
2022-12-16T12:49:57.105Z,20.85
2022-12-16T12:53:04.009Z,20.88
2022-12-16T12:56:17.998Z,21.10
2022-12-16T12:59:04.810Z,21.50
2022-12-16T13:01:52.989Z,19.63
2022-12-16T13:04:40.856Z,20.35
2022-12-16T13:07:26.824Z,21.38
2022-12-16T13:10:31.725Z,21.38
2022-12-16T13:13:43.089Z,22.95
2022-12-16T13:16:31.384Z,21.95
2022-12-16T13:19:47.664Z,22.70
2022-12-16T13:22:54.010Z,23.02
2022-12-16T13:26:10.100Z,22.88
2022-12-16T13:28:58.252Z,24.52
2022-12-16T13:31:44.964Z,27.40
2022-12-16T13:34:33.165Z,26.42
2022-12-16T13:37:26.968Z,25.10
2022-12-16T13:40:24.818Z,25.55
2022-12-16T13:43:12.327Z,25.92
2022-12-16T13:46:03.538Z,26.58
2022-12-16T13:48:56.322Z,23.42
2022-12-16T13:52:15.174Z,25.25
2022-12-16T13:55:02.155Z,29.20
2022-12-16T13:57:50.678Z,26.02
2022-12-16T14:00:42.435Z,28.17
2022-12-16T14:03:37.700Z,28.98
2022-12-16T14:06:27.840Z,27.70
2022-12-16T14:09:13.229Z,24.63
2022-12-16T14:12:13.101Z,30.15
2022-12-16T14:15:11.884Z,27.30
2022-12-16T14:18:10.992Z,26.20
2022-12-16T14:21:06.146Z,25.33
2022-12-16T14:23:58.877Z,25.33
2022-12-16T14:26:45.053Z,26.25
2022-12-16T14:29:45.772Z,21.17
2022-12-16T14:32:46.540Z,24.60
2022-12-16T14:35:43.767Z,23.05
2022-12-16T14:38:47.457Z,27.27
2022-12-16T14:41:40.425Z,24.08
2022-12-16T14:44:44.173Z,21.77
2022-12-16T14:47:38.233Z,25.10
2022-12-16T14:50:45.120Z,21.02
2022-12-16T14:53:37.415Z,24.38
2022-12-16T14:56:41.396Z,19.25
2022-12-16T14:59:48.304Z,21.25
2022-12-16T15:02:59.388Z,20.65
2022-12-16T15:05:51.581Z,22.88
2022-12-16T15:08:39.642Z,20.90
2022-12-16T15:11:39.443Z,21.55
2022-12-16T15:14:25.859Z,20.73
2022-12-16T15:17:12.553Z,19.80
2022-12-16T15:20:05.393Z,27.05
2022-12-16T15:22:51.403Z,28.58
2022-12-16T15:25:42.845Z,24.05
2022-12-16T15:28:54.886Z,22.13
2022-12-16T15:31:49.019Z,26.35
2022-12-16T15:34:49.838Z,29.05
2022-12-16T15:37:38.285Z,25.92
2022-12-16T15:40:36.848Z,22.05
2022-12-16T15:43:22.333Z,26.35
2022-12-16T15:46:08.834Z,24.70
2022-12-16T15:48:55.884Z,21.23
2022-12-16T15:52:06.443Z,23.42
2022-12-16T15:54:52.350Z,23.15
2022-12-16T15:57:47.357Z,22.52
2022-12-16T16:00:40.488Z,25.65
2022-12-16T16:03:44.273Z,25.25
2022-12-16T16:06:39.485Z,23.40
2022-12-16T16:09:47.293Z,24.88
2022-12-16T16:12:35.257Z,23.60
2022-12-16T16:15:21.276Z,23.35
2022-12-16T16:18:10.323Z,25.30
2022-12-16T16:20:55.758Z,21.77
2022-12-16T16:23:41.315Z,24.08
2022-12-16T16:26:31.364Z,22.15
2022-12-16T16:29:16.780Z,25.40
2022-12-16T16:32:04.505Z,23.92
2022-12-16T16:35:09.968Z,23.77
2022-12-16T16:37:55.410Z,22.75
2022-12-16T16:40:40.608Z,22.10
2022-12-16T16:43:25.994Z,23.45
2022-12-16T16:46:13.682Z,22.38
2022-12-16T16:48:59.499Z,23.77
2022-12-16T16:51:45.038Z,22.20
2022-12-16T16:54:30.464Z,22.38
2022-12-16T16:57:16.202Z,23.80
2022-12-16T17:00:01.926Z,21.35
2022-12-16T17:02:47.482Z,22.80
2022-12-16T17:05:32.852Z,22.10
2022-12-16T17:08:18.268Z,26.00
2022-12-16T17:11:04.551Z,23.27
2022-12-16T17:13:50.074Z,23.45
2022-12-16T17:16:35.516Z,22.67
2022-12-16T17:19:21.589Z,23.60
2022-12-16T17:22:06.896Z,20.35
2022-12-16T17:24:54.279Z,22.90
2022-12-16T17:27:44.223Z,23.35
2022-12-16T17:30:57.303Z,20.08
2022-12-16T17:33:43.062Z,21.35
2022-12-16T17:36:33.692Z,21.33
2022-12-16T17:39:19.135Z,21.50
2022-12-16T17:42:04.600Z,22.15
2022-12-16T17:44:49.982Z,21.80
2022-12-16T17:47:35.557Z,20.55
2022-12-16T17:50:21.100Z,25.75
2022-12-16T17:53:06.437Z,23.65
2022-12-16T17:55:53.059Z,21.35
2022-12-16T17:58:38.646Z,24.67
2022-12-16T18:01:25.130Z,30.17
2022-12-16T18:04:10.588Z,23.92
2022-12-16T18:06:56.080Z,30.90
2022-12-16T18:09:41.468Z,26.60
2022-12-16T18:12:26.958Z,22.27
2022-12-16T18:15:12.344Z,22.55
2022-12-16T18:17:57.781Z,18.80
2022-12-16T18:20:43.274Z,34.95
2022-12-16T18:23:28.603Z,31.90
2022-12-16T18:26:22.146Z,30.30
2022-12-16T18:29:07.795Z,25.52
2022-12-16T18:31:53.242Z,25.52
2022-12-16T18:34:39.027Z,24.67
2022-12-16T18:37:24.627Z,23.98
2022-12-16T18:40:10.060Z,24.98
2022-12-16T18:42:55.661Z,23.15
2022-12-16T18:45:41.037Z,23.48
2022-12-16T18:48:26.395Z,23.40
2022-12-16T18:51:16.340Z,22.98
2022-12-16T18:56:46.777Z,20.23
2022-12-16T18:59:32.324Z,22.17
2022-12-16T19:02:17.827Z,21.52
2022-12-16T19:05:03.218Z,20.13
2022-12-16T19:07:48.553Z,20.85
2022-12-16T19:10:33.907Z,18.48
2022-12-16T19:13:19.322Z,18.27
2022-12-16T19:16:14.706Z,19.58
2022-12-16T19:19:00.845Z,20.83
2022-12-16T19:21:51.899Z,18.73
2022-12-16T19:24:41.458Z,18.95
2022-12-16T19:27:26.854Z,18.95
2022-12-16T19:30:12.215Z,20.17
2022-12-16T19:32:57.617Z,19.42
2022-12-16T19:35:43.019Z,19.30
2022-12-16T19:38:32.759Z,18.90
2022-12-16T19:41:18.177Z,20.48
2022-12-16T19:44:06.104Z,18.50
2022-12-16T19:46:53.270Z,19.30
2022-12-16T19:49:44.387Z,18.42
2022-12-16T19:52:30.547Z,19.42
2022-12-16T19:58:21.188Z,20.05
2022-12-16T20:01:06.645Z,19.45
2022-12-16T20:03:52.362Z,19.90
2022-12-16T20:06:41.619Z,19.67
2022-12-16T20:09:27.231Z,20.00
2022-12-16T20:12:12.745Z,22.20
2022-12-16T20:14:58.059Z,20.02
2022-12-16T20:17:43.646Z,20.77
2022-12-16T20:20:29.121Z,23.20
2022-12-16T20:23:15.090Z,23.42
2022-12-16T20:26:00.558Z,22.73
2022-12-16T20:28:45.881Z,23.75
2022-12-16T20:31:31.334Z,24.88
2022-12-16T20:34:16.758Z,25.88
2022-12-16T20:37:02.094Z,24.92
2022-12-16T20:39:56.538Z,24.75
2022-12-16T20:42:43.038Z,25.80
2022-12-16T20:45:28.552Z,24.52
2022-12-16T20:48:14.350Z,24.25
2022-12-16T20:50:59.835Z,24.98
2022-12-16T20:53:45.131Z,24.98
2022-12-16T20:56:30.645Z,24.35
2022-12-16T20:59:15.984Z,24.35
2022-12-16T21:02:22.761Z,23.55
2022-12-16T21:05:06.523Z,23.10
2022-12-16T21:07:53.458Z,23.15
2022-12-16T21:10:38.695Z,23.83
2022-12-16T21:13:28.329Z,21.27
2022-12-16T21:16:16.413Z,22.42
2022-12-16T21:19:01.812Z,23.05
2022-12-16T21:21:47.395Z,20.92
2022-12-16T21:24:32.699Z,19.50
2022-12-16T22:36:20.432Z,19.35
